Terminal Aerodrome Forecast
Issued by NWS Shreveport, LA

Home | Current Version | Previous Version | Text Only | Print | Product List | Glossary On
Versions: 1 2 3 4 5 6 7 8 9 10 11 12 13 14 15 16 17 18 19 20 21 22 23 24 25 26 27
000
FTUS44 KSHV 251501 AAB
TAFSHV
TAF AMD
KSHV 251501Z 2515/2612 25010KT P6SM SCT025 OVC100
      TEMPO 2515/2516 BKN025
     FM251600 23013G20KT P6SM SCT030
     FM251800 23015G25KT P6SM SCT045
     FM260000 22004KT P6SM SCT250=

USA.gov is the U.S. government's official web portal to all federal, state and local government web resources and services.